Airfield :
LOGIN :

Register | Disclaimer

   EN    FR    IT 

 










Legend :    VFR   Marginal VFR   IFR   Intensive IFR   Very Intensive IFR
Visi :
Ceiling :
>= 8 km
>= 3000ft
5 to 8 km
1000 to 3000 ft
1500m to 5 km
500 to 1000 ft
800 to 1500m
200 to 500 ft
< 800m
< 200 ft
Symbols :   Thunderstorms  Fog  Heavy snow  Heavy precipitations  Wind > 20 kt
SIGMETs :     Misc.  Thunderstorms  Icing  Turbulence  Mountain Waves  Volcanic Ashes






- Airport Elevation : 1260 ft
- IATA code : LDE


LFBT - Tarbes / Ossun

CURRENT METAR :
  • 030800Z AUTO 27008KT CAVOK 19/14 Q1021 NOSIG

EXPIRED METARs :
  • 030730Z AUTO 28008KT 9999 FEW014 19/15 Q1021 NOSIG
  • 030700Z AUTO 26007KT 220V290 CAVOK 18/15 Q1021 NOSIG
  • 030630Z AUTO 25007KT 9999 FEW010 18/14 Q1021 NOSIG
  • 030600Z AUTO 24007KT 210V290 9999 BKN010 17/15 Q1021 BECMG NSC
  • 030530Z AUTO 22005KT 180V260 9999 BKN009 16/15 Q1021 TEMPO 4000 BR BECMG NSC

TAF TAF LFBT
Valid from the 03 at 06:00 until the 04 at 06:00 UTC


030500Z 0306/0406 23006KT 9999 BKN009
BECMG 0306/0309 CAVOK
FM031500 VRB03KT 9999 BKN030 SCT090CB
TEMPO 0316/0321 4000 -TSRA BKN012 BKN060CB
PROB40
TEMPO 0316/0318 VRB20G30KT 2000 TSRAGR BKN008
PROB30
TEMPO 0321/0403 4000 -RADZ BKN006



MET'MAP, your aeronautical weather chart ! - Copyright ORBIFLY December 2007 - Disclaimer

ORBIFLY MET'MAP TEAM :

Programming & Development : Alexandra Zaïnal
Original concept : Baudouin d'Aumeries
Technical & hardware support : Manuel Goepfert
Assistance : Marc-Olivier Méhu




SOURCES & CREDITS :

   NOAA